createdAt,value
2018-02-14T00:00:05.503Z,986.13
2018-02-14T00:01:05.390Z,986.14
2018-02-14T00:02:05.303Z,986.18
2018-02-14T00:03:05.215Z,986.14
2018-02-14T00:04:05.127Z,986.15
2018-02-14T00:05:05.040Z,986.17
2018-02-14T00:06:04.952Z,986.15
2018-02-14T00:07:04.867Z,986.18
2018-02-14T00:08:04.777Z,986.23
2018-02-14T00:09:04.689Z,986.20
2018-02-14T00:10:04.601Z,986.20
2018-02-14T00:11:04.514Z,986.18
2018-02-14T00:12:04.426Z,986.23
2018-02-14T00:13:04.338Z,986.21
2018-02-14T00:14:04.249Z,986.19
2018-02-14T00:15:04.163Z,986.18
2018-02-14T00:16:04.075Z,986.17
2018-02-14T00:17:03.987Z,986.21
2018-02-14T00:18:03.899Z,986.22
2018-02-14T00:19:03.812Z,986.17
2018-02-14T00:20:03.724Z,986.17
2018-02-14T00:21:03.635Z,986.19
2018-02-14T00:22:03.550Z,986.18
2018-02-14T00:23:03.460Z,986.22
2018-02-14T00:24:03.403Z,986.23
2018-02-14T00:25:03.283Z,986.23
2018-02-14T00:26:03.195Z,986.23
2018-02-14T00:27:03.108Z,986.22
2018-02-14T00:28:03.020Z,986.24
2018-02-14T00:29:02.932Z,986.28
2018-02-14T00:30:02.844Z,986.27
2018-02-14T00:31:02.756Z,986.26
2018-02-14T00:32:02.669Z,986.29
2018-02-14T00:33:02.579Z,986.29
2018-02-14T00:34:02.491Z,986.28
2018-02-14T00:35:02.405Z,986.27
2018-02-14T00:36:02.316Z,986.27
2018-02-14T00:37:02.227Z,986.32
2018-02-14T00:38:02.140Z,986.27
2018-02-14T00:39:02.051Z,986.23
2018-02-14T00:40:01.964Z,986.28
2018-02-14T00:41:01.875Z,986.25
2018-02-14T00:42:01.787Z,986.28
2018-02-14T00:43:01.700Z,986.28
2018-02-14T00:44:01.912Z,986.29
2018-02-14T00:45:01.523Z,986.25
2018-02-14T00:46:01.436Z,986.30
2018-02-14T00:47:01.349Z,986.27
2018-02-14T00:48:01.259Z,986.31
2018-02-14T00:49:01.172Z,986.32
2018-02-14T00:50:01.086Z,986.33
2018-02-14T00:51:00.995Z,986.35
2018-02-14T00:52:00.907Z,986.33
2018-02-14T00:53:00.822Z,986.32
2018-02-14T00:54:00.731Z,986.33
2018-02-14T00:55:00.643Z,986.35
2018-02-14T00:56:00.554Z,986.35
2018-02-14T00:57:00.467Z,986.37
2018-02-14T00:58:00.379Z,986.35
2018-02-14T00:59:00.291Z,986.37
2018-02-14T01:00:00.203Z,986.36
2018-02-14T01:01:00.116Z,986.37
2018-02-14T01:02:00.030Z,986.40
2018-02-14T01:02:59.939Z,986.41
2018-02-14T01:03:59.851Z,986.42
2018-02-14T01:04:59.763Z,986.41
2018-02-14T01:05:59.675Z,986.38
2018-02-14T01:06:59.588Z,986.40
2018-02-14T01:07:59.499Z,986.44
2018-02-14T01:08:59.410Z,986.47
2018-02-14T01:09:59.322Z,986.42
2018-02-14T01:10:59.233Z,986.45
2018-02-14T01:11:59.147Z,986.45
2018-02-14T01:12:59.057Z,986.46
2018-02-14T01:13:58.970Z,986.46
2018-02-14T01:14:58.883Z,986.49
2018-02-14T01:15:58.795Z,986.46
2018-02-14T01:16:58.706Z,986.49
2018-02-14T01:17:58.617Z,986.46
2018-02-14T01:18:58.531Z,986.52
2018-02-14T01:19:58.443Z,986.49
2018-02-14T01:20:58.354Z,986.56
2018-02-14T01:21:58.266Z,986.52
2018-02-14T01:22:58.180Z,986.49
2018-02-14T01:23:58.092Z,986.49
2018-02-14T01:24:58.003Z,986.52
2018-02-14T01:25:57.915Z,986.53
2018-02-14T01:26:57.826Z,986.53
2018-02-14T01:27:57.740Z,986.53
2018-02-14T01:28:57.656Z,986.54
2018-02-14T01:29:57.563Z,986.53
2018-02-14T01:30:57.477Z,986.56
2018-02-14T01:31:57.386Z,986.56
2018-02-14T01:32:57.299Z,986.55
2018-02-14T01:33:57.211Z,986.53
2018-02-14T01:34:57.124Z,986.55
2018-02-14T01:35:57.034Z,986.53
2018-02-14T01:36:56.947Z,986.54
2018-02-14T01:37:56.859Z,986.52
2018-02-14T01:38:56.770Z,986.52
2018-02-14T01:39:56.683Z,986.54
2018-02-14T01:40:56.594Z,986.54
2018-02-14T01:41:56.506Z,986.51
2018-02-14T01:42:56.422Z,986.54
2018-02-14T01:43:56.332Z,986.53
2018-02-14T01:44:56.243Z,986.54
2018-02-14T01:45:56.154Z,986.55
2018-02-14T01:46:56.068Z,986.52
2018-02-14T01:47:55.979Z,986.49
2018-02-14T01:48:55.889Z,986.51
2018-02-14T01:49:55.802Z,986.51
2018-02-14T01:50:55.715Z,986.53
2018-02-14T01:51:55.627Z,986.55
2018-02-14T01:52:55.537Z,986.57
2018-02-14T01:53:55.451Z,986.60
2018-02-14T01:54:55.362Z,986.61
2018-02-14T01:55:55.274Z,986.62
2018-02-14T01:56:55.187Z,986.61
2018-02-14T01:57:55.098Z,986.61
2018-02-14T01:58:55.011Z,986.65
2018-02-14T01:59:54.923Z,986.64
2018-02-14T02:00:54.834Z,986.57
2018-02-14T02:01:54.747Z,986.59
2018-02-14T02:02:54.663Z,986.57
2018-02-14T02:03:54.571Z,986.59
2018-02-14T02:04:54.483Z,986.61
2018-02-14T02:05:54.395Z,986.60
2018-02-14T02:06:54.308Z,986.62
2018-02-14T02:07:54.220Z,986.62
2018-02-14T02:08:54.133Z,986.55
2018-02-14T02:09:54.044Z,986.56
2018-02-14T02:10:53.956Z,986.61
2018-02-14T02:11:53.869Z,986.56
2018-02-14T02:12:53.780Z,986.57
2018-02-14T02:13:53.691Z,986.59
2018-02-14T02:14:53.604Z,986.59
2018-02-14T02:15:53.517Z,986.60
2018-02-14T02:16:53.428Z,986.59
2018-02-14T02:17:53.340Z,986.58
2018-02-14T02:18:53.252Z,986.61
2018-02-14T02:19:53.165Z,986.60
2018-02-14T02:20:53.076Z,986.61
2018-02-14T02:21:52.988Z,986.63
2018-02-14T02:22:52.904Z,986.62
2018-02-14T02:23:52.814Z,986.60
2018-02-14T02:24:52.725Z,986.62
2018-02-14T02:25:52.637Z,986.61
2018-02-14T02:26:52.549Z,986.66
2018-02-14T02:27:52.461Z,986.68
2018-02-14T02:28:52.373Z,986.66
2018-02-14T02:29:52.286Z,986.69
2018-02-14T02:30:52.198Z,986.67
2018-02-14T02:31:52.110Z,986.70
2018-02-14T02:32:52.022Z,986.74
2018-02-14T02:33:51.934Z,986.73
2018-02-14T02:34:51.847Z,986.77
2018-02-14T02:35:51.760Z,986.71
2018-02-14T02:36:51.671Z,986.76
2018-02-14T02:37:51.587Z,986.72
2018-02-14T02:38:51.494Z,986.76
2018-02-14T02:39:51.407Z,986.81
2018-02-14T02:40:51.319Z,986.77
2018-02-14T02:41:51.231Z,986.78
2018-02-14T02:42:51.147Z,986.75
2018-02-14T02:43:51.055Z,986.78
2018-02-14T02:44:50.967Z,986.80
2018-02-14T02:45:50.880Z,986.82
2018-02-14T02:46:50.792Z,986.77
2018-02-14T02:47:50.704Z,986.78
2018-02-14T02:48:50.615Z,986.80
2018-02-14T02:49:50.527Z,986.80
2018-02-14T02:50:50.440Z,986.82
2018-02-14T02:51:50.351Z,986.82
2018-02-14T02:52:50.263Z,986.84
2018-02-14T02:53:50.175Z,986.83
2018-02-14T02:54:50.089Z,986.86
2018-02-14T02:55:50.000Z,986.84
2018-02-14T02:56:49.914Z,986.84
2018-02-14T02:57:49.827Z,986.83
2018-02-14T02:58:49.736Z,986.85
2018-02-14T02:59:49.648Z,986.84
2018-02-14T03:00:49.560Z,986.84
2018-02-14T03:01:49.472Z,986.87
2018-02-14T03:02:49.384Z,986.88
2018-02-14T03:03:49.296Z,986.90
2018-02-14T03:04:49.207Z,986.87
2018-02-14T03:05:49.119Z,986.91
2018-02-14T03:06:49.032Z,986.92
2018-02-14T03:07:48.942Z,986.94
2018-02-14T03:08:48.854Z,986.92
2018-02-14T03:09:48.766Z,986.96
2018-02-14T03:10:48.679Z,986.97
2018-02-14T03:11:48.590Z,986.96
2018-02-14T03:12:48.502Z,986.95
2018-02-14T03:13:48.414Z,986.97
2018-02-14T03:14:48.326Z,986.96
2018-02-14T03:15:48.237Z,987.03
2018-02-14T03:16:48.149Z,987.00
2018-02-14T03:17:48.065Z,987.06
2018-02-14T03:18:47.973Z,987.02
2018-02-14T03:19:47.885Z,987.03
2018-02-14T03:20:47.796Z,987.03
2018-02-14T03:21:47.708Z,987.05
2018-02-14T03:22:47.620Z,987.06
2018-02-14T03:23:47.534Z,987.05
2018-02-14T03:24:47.443Z,987.07
2018-02-14T03:25:47.358Z,987.06
2018-02-14T03:26:47.271Z,987.09
2018-02-14T03:27:47.179Z,987.04
2018-02-14T03:28:47.091Z,987.03
2018-02-14T03:29:47.003Z,987.04
2018-02-14T03:30:46.917Z,987.07
2018-02-14T03:31:46.829Z,987.12
2018-02-14T03:32:46.737Z,987.13
2018-02-14T03:33:46.648Z,987.12
2018-02-14T03:34:46.561Z,987.11
2018-02-14T03:35:46.472Z,987.10
2018-02-14T03:36:46.384Z,987.15
2018-02-14T03:37:46.300Z,987.14
2018-02-14T03:38:46.210Z,987.15
2018-02-14T03:39:46.119Z,987.08
2018-02-14T03:40:46.030Z,987.14
2018-02-14T03:41:45.945Z,987.12
2018-02-14T03:42:45.856Z,987.13
2018-02-14T03:43:45.765Z,987.12
2018-02-14T03:44:45.677Z,987.15
2018-02-14T03:45:45.889Z,987.13
2018-02-14T03:46:45.500Z,987.13
2018-02-14T03:47:45.413Z,987.15
2018-02-14T03:48:45.323Z,987.14
2018-02-14T03:49:45.236Z,987.14
2018-02-14T03:50:45.148Z,987.19
2018-02-14T03:51:45.062Z,987.25
2018-02-14T03:52:44.970Z,987.22
2018-02-14T03:53:44.883Z,987.27
2018-02-14T03:54:44.795Z,987.30
2018-02-14T03:55:44.708Z,987.28
2018-02-14T03:56:44.618Z,987.30
2018-02-14T03:57:44.530Z,987.32
2018-02-14T03:58:44.441Z,987.31
2018-02-14T03:59:44.354Z,987.32
2018-02-14T04:00:44.266Z,987.28
2018-02-14T04:01:44.177Z,987.36
2018-02-14T04:02:44.089Z,987.38
2018-02-14T04:03:44.002Z,987.38
2018-02-14T04:04:43.913Z,987.35
2018-02-14T04:05:43.826Z,987.38
2018-02-14T04:06:43.737Z,987.39
2018-02-14T04:07:43.799Z,987.41
2018-02-14T04:08:43.560Z,987.38
2018-02-14T04:09:43.472Z,987.40
2018-02-14T04:10:43.427Z,987.39
2018-02-14T04:11:43.298Z,987.44
2018-02-14T04:12:43.207Z,987.44
2018-02-14T04:13:43.119Z,987.44
2018-02-14T04:14:43.030Z,987.46
2018-02-14T04:15:42.943Z,987.53
2018-02-14T04:16:42.854Z,987.52
2018-02-14T04:17:42.766Z,987.52
2018-02-14T04:18:42.676Z,987.53
2018-02-14T04:19:42.589Z,987.58
2018-02-14T04:20:42.501Z,987.55
2018-02-14T04:21:42.412Z,987.60
2018-02-14T04:22:42.324Z,987.60
2018-02-14T04:23:42.237Z,987.65
2018-02-14T04:24:42.150Z,987.64
2018-02-14T04:25:42.060Z,987.65
2018-02-14T04:26:41.972Z,987.72
2018-02-14T04:27:41.884Z,987.68
2018-02-14T04:28:41.796Z,987.70
2018-02-14T04:29:41.712Z,987.72
2018-02-14T04:30:41.618Z,987.69
2018-02-14T04:31:41.532Z,987.73
2018-02-14T04:32:41.443Z,987.74
2018-02-14T04:33:41.354Z,987.77
2018-02-14T04:34:41.269Z,987.77
2018-02-14T04:35:41.179Z,987.77
2018-02-14T04:36:41.090Z,987.82
2018-02-14T04:37:41.002Z,987.78
2018-02-14T04:38:40.914Z,987.80
2018-02-14T04:39:40.825Z,987.83
2018-02-14T04:40:40.737Z,987.75
2018-02-14T04:41:40.649Z,987.76
2018-02-14T04:42:40.561Z,987.74
2018-02-14T04:43:40.473Z,987.77
2018-02-14T04:44:40.384Z,987.76
2018-02-14T04:45:40.296Z,987.78
2018-02-14T04:46:40.210Z,987.81
2018-02-14T04:47:40.124Z,987.86
2018-02-14T04:48:40.031Z,987.80
2018-02-14T04:49:39.944Z,987.82
2018-02-14T04:50:39.856Z,987.80
2018-02-14T04:51:39.769Z,987.84
2018-02-14T04:52:39.680Z,987.83
2018-02-14T04:53:39.892Z,987.88
2018-02-14T04:54:39.504Z,987.88
2018-02-14T04:55:39.417Z,987.90
2018-02-14T04:56:39.327Z,987.90
2018-02-14T04:57:39.240Z,987.92
2018-02-14T04:58:39.152Z,987.92
2018-02-14T04:59:39.064Z,987.93
2018-02-14T05:00:38.976Z,987.95
2018-02-14T05:01:38.888Z,987.93
2018-02-14T05:02:38.800Z,987.96
2018-02-14T05:03:38.715Z,987.94
2018-02-14T05:04:38.624Z,988.02
2018-02-14T05:05:38.536Z,988.01
2018-02-14T05:06:38.449Z,988.04
2018-02-14T05:07:38.359Z,988.05
2018-02-14T05:08:38.270Z,988.06
2018-02-14T05:09:38.183Z,988.04
2018-02-14T05:10:38.097Z,988.04
2018-02-14T05:11:38.009Z,988.09
2018-02-14T05:12:37.920Z,988.10
2018-02-14T05:13:37.832Z,988.08
2018-02-14T05:14:37.744Z,988.12
2018-02-14T05:15:37.807Z,988.15
2018-02-14T05:16:37.568Z,988.17
2018-02-14T05:17:37.479Z,988.20
2018-02-14T05:18:37.393Z,988.18
2018-02-14T05:19:37.308Z,988.19
2018-02-14T05:20:37.216Z,988.22
2018-02-14T05:21:37.128Z,988.23
2018-02-14T05:22:37.041Z,988.24
2018-02-14T05:23:36.953Z,988.25
2018-02-14T05:24:36.865Z,988.23
2018-02-14T05:25:36.775Z,988.29
2018-02-14T05:26:36.688Z,988.30
2018-02-14T05:27:36.599Z,988.29
2018-02-14T05:28:36.511Z,988.29
2018-02-14T05:29:36.422Z,988.35
2018-02-14T05:30:36.336Z,988.34
2018-02-14T05:31:36.246Z,988.35
2018-02-14T05:32:36.158Z,988.36
2018-02-14T05:33:36.071Z,988.40
2018-02-14T05:34:35.982Z,988.39
2018-02-14T05:35:35.895Z,988.45
2018-02-14T05:36:35.848Z,988.44
2018-02-14T05:37:35.718Z,988.44
2018-02-14T05:38:35.630Z,988.38
2018-02-14T05:39:35.542Z,988.41
2018-02-14T05:40:35.453Z,988.44
2018-02-14T05:41:35.365Z,988.41
2018-02-14T05:42:35.277Z,988.42
2018-02-14T05:43:35.188Z,988.42
2018-02-14T05:44:35.100Z,988.46
2018-02-14T05:45:35.011Z,988.44
2018-02-14T05:46:34.922Z,988.46
2018-02-14T05:47:34.835Z,988.50
2018-02-14T05:48:34.745Z,988.47
2018-02-14T05:49:34.657Z,988.54
2018-02-14T05:50:34.568Z,988.53
2018-02-14T05:51:34.482Z,988.55
2018-02-14T05:52:34.392Z,988.59
2018-02-14T05:53:34.303Z,988.59
2018-02-14T05:54:34.216Z,988.59
2018-02-14T05:55:34.126Z,988.59
2018-02-14T05:56:34.038Z,988.63
2018-02-14T05:57:33.949Z,988.66
2018-02-14T05:58:33.860Z,988.71
2018-02-14T05:59:33.772Z,988.68
2018-02-14T06:00:33.682Z,988.73
2018-02-14T06:01:33.595Z,988.74
2018-02-14T06:02:33.506Z,988.73
2018-02-14T06:03:33.418Z,988.77
2018-02-14T06:04:33.328Z,988.76
2018-02-14T06:05:33.241Z,988.82
2018-02-14T06:06:33.152Z,988.82
2018-02-14T06:07:33.065Z,988.81
2018-02-14T06:08:32.975Z,988.85
2018-02-14T06:09:32.892Z,988.83
2018-02-14T06:10:32.797Z,988.87
2018-02-14T06:11:32.709Z,988.88
2018-02-14T06:12:32.619Z,988.90
2018-02-14T06:13:32.531Z,988.95
2018-02-14T06:14:32.443Z,988.91
2018-02-14T06:15:32.354Z,988.92
2018-02-14T06:16:32.267Z,988.93
2018-02-14T06:17:32.176Z,988.91
2018-02-14T06:18:32.087Z,988.97
2018-02-14T06:19:31.999Z,989.00
2018-02-14T06:20:31.909Z,988.99
2018-02-14T06:21:31.821Z,989.00
2018-02-14T06:22:31.733Z,989.00
2018-02-14T06:23:31.643Z,989.03
2018-02-14T06:24:31.558Z,989.04
2018-02-14T06:25:31.466Z,989.06
2018-02-14T06:26:31.377Z,989.06
2018-02-14T06:27:31.289Z,989.11
2018-02-14T06:28:31.262Z,989.14
2018-02-14T06:29:31.109Z,989.09
2018-02-14T06:30:31.022Z,989.07
2018-02-14T06:31:30.933Z,989.05
2018-02-14T06:32:30.844Z,989.10
2018-02-14T06:33:30.755Z,989.06
2018-02-14T06:34:30.666Z,989.09
2018-02-14T06:35:30.578Z,989.10
2018-02-14T06:36:30.487Z,989.10
2018-02-14T06:37:30.400Z,989.16
2018-02-14T06:38:30.311Z,989.14
2018-02-14T06:39:30.224Z,989.15
2018-02-14T06:40:30.132Z,989.18
2018-02-14T06:41:30.044Z,989.19
2018-02-14T06:42:29.955Z,989.14
2018-02-14T06:43:29.866Z,989.16
2018-02-14T06:44:29.776Z,989.19
2018-02-14T06:45:29.688Z,989.18
2018-02-14T06:46:29.598Z,989.19
2018-02-14T06:47:29.511Z,989.21
2018-02-14T06:48:29.421Z,989.20
2018-02-14T06:49:29.332Z,989.22
2018-02-14T06:50:29.244Z,989.20
2018-02-14T06:51:29.156Z,989.24
2018-02-14T06:52:29.066Z,989.24
2018-02-14T06:53:28.978Z,989.19
2018-02-14T06:54:28.888Z,989.19
2018-02-14T06:55:28.800Z,989.19
2018-02-14T06:56:28.710Z,989.18
2018-02-14T06:57:28.622Z,989.18
2018-02-14T06:58:28.533Z,989.21
2018-02-14T06:59:28.445Z,989.22
2018-02-14T07:00:28.355Z,989.19
2018-02-14T07:01:28.269Z,989.18
2018-02-14T07:02:28.180Z,989.24
2018-02-14T07:03:28.090Z,989.24
2018-02-14T07:04:27.999Z,989.26
2018-02-14T07:05:27.911Z,989.24
2018-02-14T07:06:27.824Z,989.25
2018-02-14T07:07:27.739Z,989.26
2018-02-14T07:08:27.645Z,989.29
2018-02-14T07:09:27.557Z,989.29
2018-02-14T07:10:27.469Z,989.25
2018-02-14T07:11:27.380Z,989.28
2018-02-14T07:12:27.290Z,989.34
2018-02-14T07:13:27.202Z,989.33
2018-02-14T07:14:27.114Z,989.36
2018-02-14T07:15:27.025Z,989.37
2018-02-14T07:16:26.936Z,989.35
2018-02-14T07:17:26.864Z,989.35
2018-02-14T07:18:26.759Z,989.37
2018-02-14T07:19:26.671Z,989.37
2018-02-14T07:20:26.582Z,989.41
2018-02-14T07:21:26.495Z,989.43
2018-02-14T07:22:26.408Z,989.43
2018-02-14T07:23:26.317Z,989.44
2018-02-14T07:24:26.227Z,989.47
2018-02-14T07:25:26.139Z,989.45
2018-02-14T07:26:26.051Z,989.48
2018-02-14T07:27:25.961Z,989.54
2018-02-14T07:28:25.873Z,989.53
2018-02-14T07:29:25.783Z,989.51
2018-02-14T07:30:25.696Z,989.54
2018-02-14T07:31:25.608Z,989.53
2018-02-14T07:32:25.518Z,989.56
2018-02-14T07:33:25.430Z,989.52
2018-02-14T07:34:25.344Z,989.52
2018-02-14T07:35:25.265Z,989.54
2018-02-14T07:36:25.164Z,989.55
2018-02-14T07:37:25.076Z,989.54
2018-02-14T07:38:24.988Z,989.55
2018-02-14T07:39:24.899Z,989.59
2018-02-14T07:40:24.810Z,989.59
2018-02-14T07:41:24.724Z,989.60
2018-02-14T07:42:24.634Z,989.59
2018-02-14T07:43:24.545Z,989.62
2018-02-14T07:44:24.455Z,989.62
2018-02-14T07:45:24.368Z,989.61
2018-02-14T07:46:24.278Z,989.64
2018-02-14T07:47:24.191Z,989.63
2018-02-14T07:48:24.101Z,989.64
2018-02-14T07:49:24.012Z,989.68
2018-02-14T07:50:23.925Z,989.66
2018-02-14T07:51:23.836Z,989.63
2018-02-14T07:52:23.747Z,989.69
2018-02-14T07:53:23.659Z,989.68
2018-02-14T07:54:23.570Z,989.72
2018-02-14T07:55:23.484Z,989.71
2018-02-14T07:56:23.393Z,989.73
2018-02-14T07:57:23.305Z,989.75
2018-02-14T07:58:23.217Z,989.72
2018-02-14T07:59:23.129Z,989.73
2018-02-14T08:00:23.040Z,989.73
2018-02-14T08:01:22.952Z,989.78
2018-02-14T08:02:22.864Z,989.81
2018-02-14T08:03:22.776Z,989.78
2018-02-14T08:04:22.686Z,989.81
2018-02-14T08:05:22.601Z,989.83
2018-02-14T08:06:22.510Z,989.88
2018-02-14T08:07:22.422Z,989.89
2018-02-14T08:08:22.333Z,989.94
2018-02-14T08:09:22.245Z,989.90
2018-02-14T08:10:22.157Z,989.96
2018-02-14T08:11:22.069Z,989.96
2018-02-14T08:12:21.980Z,989.93
2018-02-14T08:13:21.891Z,989.90
2018-02-14T08:14:21.807Z,989.92
2018-02-14T08:15:21.716Z,989.92
2018-02-14T08:16:21.628Z,989.97
2018-02-14T08:17:21.540Z,989.98
2018-02-14T08:18:21.450Z,989.94
2018-02-14T08:19:21.364Z,989.97
2018-02-14T08:20:21.275Z,989.99
2018-02-14T08:21:21.188Z,989.99
2018-02-14T08:22:21.100Z,990.01
2018-02-14T08:23:21.013Z,989.95
2018-02-14T08:24:20.924Z,989.97
2018-02-14T08:25:20.838Z,989.97
2018-02-14T08:26:20.750Z,990.01
2018-02-14T08:27:20.662Z,990.00
2018-02-14T08:28:20.574Z,990.00
2018-02-14T08:29:20.487Z,990.00
2018-02-14T08:30:20.400Z,990.05
2018-02-14T08:31:20.313Z,990.08
2018-02-14T08:32:20.225Z,990.08
2018-02-14T08:33:20.138Z,990.10
2018-02-14T08:34:20.083Z,990.16
2018-02-14T08:35:19.964Z,990.13
2018-02-14T08:36:19.876Z,990.14
2018-02-14T08:37:19.790Z,990.13
2018-02-14T08:38:19.703Z,990.18
2018-02-14T08:39:19.617Z,990.21
2018-02-14T08:40:19.529Z,990.20
2018-02-14T08:41:19.443Z,990.19
2018-02-14T08:42:19.356Z,990.22
2018-02-14T08:43:19.270Z,990.20
2018-02-14T08:44:19.182Z,990.18
2018-02-14T08:45:19.096Z,990.19
2018-02-14T08:46:19.010Z,990.20
2018-02-14T08:47:18.924Z,990.19
2018-02-14T08:48:18.836Z,990.21
2018-02-14T08:49:18.750Z,990.23
2018-02-14T08:50:18.813Z,990.23
2018-02-14T08:51:18.578Z,990.24
2018-02-14T08:52:18.491Z,990.23
2018-02-14T08:53:18.405Z,990.24
2018-02-14T08:54:18.320Z,990.27
2018-02-14T08:55:18.233Z,990.31
2018-02-14T08:56:18.146Z,990.30
2018-02-14T08:57:18.061Z,990.27
2018-02-14T08:58:17.975Z,990.31
2018-02-14T08:59:17.889Z,990.31
2018-02-14T09:00:17.834Z,990.31
2018-02-14T09:01:17.717Z,990.37
2018-02-14T09:02:17.632Z,990.37
2018-02-14T09:03:17.546Z,990.36
2018-02-14T09:04:17.460Z,990.40
2018-02-14T09:05:17.375Z,990.36
2018-02-14T09:06:17.290Z,990.39
2018-02-14T09:07:17.205Z,990.39
2018-02-14T09:08:17.122Z,990.41
2018-02-14T09:09:17.033Z,990.42
2018-02-14T09:10:16.949Z,990.42
2018-02-14T09:11:16.864Z,990.48
2018-02-14T09:12:16.778Z,990.54
2018-02-14T09:13:16.693Z,990.53
2018-02-14T09:14:16.627Z,990.55
2018-02-14T09:15:16.523Z,990.54
2018-02-14T09:16:16.438Z,990.54
2018-02-14T09:17:16.354Z,990.56
2018-02-14T09:18:16.268Z,990.56
2018-02-14T09:19:16.186Z,990.55
2018-02-14T09:20:16.103Z,990.54
2018-02-14T09:21:16.017Z,990.58
2018-02-14T09:22:15.933Z,990.55
2018-02-14T09:23:15.850Z,990.50
2018-02-14T09:24:15.766Z,990.52
2018-02-14T09:25:15.682Z,990.53
2018-02-14T09:26:15.600Z,990.57
2018-02-14T09:27:15.517Z,990.53
2018-02-14T09:28:15.433Z,990.49
2018-02-14T09:29:15.350Z,990.43
2018-02-14T09:30:15.268Z,990.46
2018-02-14T09:31:15.186Z,990.46
2018-02-14T09:32:15.104Z,990.44
2018-02-14T09:33:15.020Z,990.46
2018-02-14T09:34:14.937Z,990.45
2018-02-14T09:35:14.857Z,990.46
2018-02-14T09:36:14.771Z,990.42
2018-02-14T09:37:14.689Z,990.45
2018-02-14T09:38:14.606Z,990.51
2018-02-14T09:39:14.524Z,990.46
2018-02-14T09:40:14.441Z,990.48
2018-02-14T09:41:14.359Z,990.53
2018-02-14T09:42:14.275Z,990.55
2018-02-14T09:43:14.193Z,990.54
2018-02-14T09:44:14.109Z,990.54
2018-02-14T09:45:14.026Z,990.61
2018-02-14T09:46:13.943Z,990.61
2018-02-14T09:47:13.862Z,990.61
2018-02-14T09:48:13.783Z,990.61
2018-02-14T09:49:13.697Z,990.60
2018-02-14T09:50:13.613Z,990.56
2018-02-14T09:51:13.531Z,990.60
2018-02-14T09:52:13.448Z,990.64
2018-02-14T09:53:13.366Z,990.64
2018-02-14T09:54:13.284Z,990.71
2018-02-14T09:55:13.201Z,990.67
2018-02-14T09:56:13.117Z,990.71
2018-02-14T09:57:13.038Z,990.71
2018-02-14T09:58:12.954Z,990.77
2018-02-14T09:59:12.871Z,990.81
2018-02-14T10:00:12.826Z,990.79
2018-02-14T10:01:12.708Z,990.80
2018-02-14T10:02:12.627Z,990.83
2018-02-14T10:03:12.545Z,990.83
2018-02-14T10:04:12.462Z,990.81
2018-02-14T10:05:12.379Z,990.82
2018-02-14T10:06:12.299Z,990.83
2018-02-14T10:07:12.217Z,990.86
2018-02-14T10:08:12.134Z,990.92
2018-02-14T10:09:12.052Z,990.91
2018-02-14T10:10:11.972Z,990.95
2018-02-14T10:11:11.894Z,990.97
2018-02-14T10:12:11.808Z,990.99
2018-02-14T10:13:11.728Z,990.98
2018-02-14T10:14:11.646Z,991.02
2018-02-14T10:15:11.565Z,991.04
2018-02-14T10:16:11.483Z,991.03
2018-02-14T10:17:11.402Z,991.06
2018-02-14T10:18:11.322Z,991.15
2018-02-14T10:19:11.240Z,991.12
2018-02-14T10:20:11.158Z,991.11
2018-02-14T10:21:11.077Z,991.14
2018-02-14T10:22:10.997Z,991.14
2018-02-14T10:23:10.927Z,991.13
2018-02-14T10:24:10.834Z,991.12
2018-02-14T10:25:10.753Z,991.14
2018-02-14T10:26:10.673Z,991.13
2018-02-14T10:27:10.593Z,991.15
2018-02-14T10:28:10.512Z,991.14
2018-02-14T10:29:10.432Z,991.15
2018-02-14T10:30:10.356Z,991.17
2018-02-14T10:31:10.273Z,991.18
2018-02-14T10:32:10.190Z,991.16
2018-02-14T10:33:10.112Z,991.19
2018-02-14T10:34:10.033Z,991.19
2018-02-14T10:35:09.955Z,991.20
2018-02-14T10:36:09.873Z,991.25
2018-02-14T10:37:09.793Z,991.25
2018-02-14T10:38:09.713Z,991.25
2018-02-14T10:39:09.633Z,991.21
2018-02-14T10:40:09.553Z,991.20
2018-02-14T10:41:09.474Z,991.20
2018-02-14T10:42:09.394Z,991.16
2018-02-14T10:43:09.314Z,991.14
2018-02-14T10:44:09.234Z,991.17
2018-02-14T10:45:09.153Z,991.21
2018-02-14T10:46:09.088Z,991.17
2018-02-14T10:47:08.995Z,991.22
2018-02-14T10:48:08.915Z,991.26
2018-02-14T10:49:08.836Z,991.27
2018-02-14T10:50:08.757Z,991.28
2018-02-14T10:51:08.679Z,991.27
2018-02-14T10:52:08.599Z,991.25
2018-02-14T10:53:08.521Z,991.24
2018-02-14T10:54:08.443Z,991.27
2018-02-14T10:55:08.364Z,991.25
2018-02-14T10:56:08.286Z,991.23
2018-02-14T10:57:08.207Z,991.19
2018-02-14T10:58:08.129Z,991.22
2018-02-14T10:59:08.051Z,991.17
2018-02-14T11:00:07.971Z,991.19
2018-02-14T11:01:07.892Z,991.13
2018-02-14T11:02:07.813Z,991.13
2018-02-14T11:03:07.735Z,991.09
2018-02-14T11:04:07.656Z,991.06
2018-02-14T11:05:07.578Z,991.01
2018-02-14T11:06:07.509Z,991.02
2018-02-14T11:07:07.421Z,991.07
2018-02-14T11:08:07.344Z,991.09
2018-02-14T11:09:07.263Z,991.15
2018-02-14T11:10:07.187Z,991.20
2018-02-14T11:11:07.107Z,991.19
2018-02-14T11:12:07.027Z,991.18
2018-02-14T11:13:06.950Z,991.12
2018-02-14T11:14:06.873Z,991.15
2018-02-14T11:15:06.796Z,991.13
2018-02-14T11:16:06.718Z,991.13
2018-02-14T11:17:06.640Z,991.11
2018-02-14T11:18:06.564Z,991.11
2018-02-14T11:19:06.488Z,991.11
2018-02-14T11:20:06.410Z,991.04
2018-02-14T11:21:06.334Z,991.04
2018-02-14T11:22:06.258Z,991.11
2018-02-14T11:23:06.181Z,991.09
2018-02-14T11:24:06.106Z,991.04
2018-02-14T11:25:06.029Z,991.07
2018-02-14T11:26:05.953Z,991.04
2018-02-14T11:27:05.878Z,991.10
2018-02-14T11:28:05.801Z,991.08
2018-02-14T11:29:05.725Z,991.03
2018-02-14T11:30:05.689Z,991.10
2018-02-14T11:31:05.573Z,991.06
2018-02-14T11:32:05.496Z,991.07
2018-02-14T11:33:05.420Z,991.10
2018-02-14T11:34:05.345Z,991.09
2018-02-14T11:35:05.269Z,991.14
2018-02-14T11:36:05.192Z,991.18
2018-02-14T11:37:05.117Z,991.24
2018-02-14T11:38:05.042Z,991.19
2018-02-14T11:39:04.967Z,991.23
2018-02-14T11:40:04.891Z,991.24
2018-02-14T11:41:04.815Z,991.22
2018-02-14T11:42:04.740Z,991.24
2018-02-14T11:43:04.666Z,991.29
2018-02-14T11:44:04.590Z,991.35
2018-02-14T11:45:04.518Z,991.41
2018-02-14T11:46:04.440Z,991.41
2018-02-14T11:47:04.367Z,991.43
2018-02-14T11:48:04.291Z,991.49
2018-02-14T11:49:04.216Z,991.52
2018-02-14T11:50:04.142Z,991.51
2018-02-14T11:51:04.072Z,991.53
2018-02-14T11:52:03.994Z,991.58
2018-02-14T11:53:03.921Z,991.48
2018-02-14T11:54:03.848Z,991.50
2018-02-14T11:55:03.776Z,991.49
2018-02-14T11:56:03.703Z,991.49
2018-02-14T11:57:03.630Z,991.52
2018-02-14T11:58:03.559Z,991.51
2018-02-14T11:59:03.488Z,991.51
2018-02-14T12:00:03.418Z,991.44
2018-02-14T12:01:03.346Z,991.47
2018-02-14T12:02:03.277Z,991.50
2018-02-14T12:03:03.204Z,991.49
2018-02-14T12:04:03.133Z,991.48
2018-02-14T12:05:03.063Z,991.53
2018-02-14T12:06:02.994Z,991.58
2018-02-14T12:07:02.924Z,991.58
2018-02-14T12:08:02.852Z,991.53
2018-02-14T12:09:02.783Z,991.58
2018-02-14T12:10:02.712Z,991.55
2018-02-14T12:11:02.647Z,991.55
2018-02-14T12:12:02.574Z,991.62
2018-02-14T12:13:02.504Z,991.60
2018-02-14T12:14:02.435Z,991.60
2018-02-14T12:15:02.367Z,991.64
2018-02-14T12:16:02.297Z,991.67
2018-02-14T12:17:02.228Z,991.61
2018-02-14T12:18:02.160Z,991.64
2018-02-14T12:19:02.092Z,991.66
2018-02-14T12:20:02.023Z,991.68
2018-02-14T12:21:01.954Z,991.64
2018-02-14T12:22:01.889Z,991.63
2018-02-14T12:23:01.819Z,991.65
2018-02-14T12:24:01.749Z,991.66
2018-02-14T12:25:01.681Z,991.69
2018-02-14T12:26:01.618Z,991.68
2018-02-14T12:27:01.546Z,991.56